createdAt,value
2019-03-15T00:02:39.906Z,71.60
2019-03-15T00:12:41.970Z,71.40
2019-03-15T00:22:43.968Z,71.10
2019-03-15T00:32:45.923Z,70.80
2019-03-15T00:42:48.088Z,70.10
2019-03-15T00:52:50.662Z,70.30
2019-03-15T01:02:53.186Z,70.00
2019-03-15T01:12:55.351Z,70.10
2019-03-15T01:22:57.842Z,69.90
2019-03-15T01:33:01.691Z,70.10
2019-03-15T01:43:04.615Z,69.80
2019-03-15T01:53:07.980Z,69.80
2019-03-15T02:03:10.243Z,69.80
2019-03-15T02:13:12.392Z,69.80
2019-03-15T02:23:14.382Z,70.00
2019-03-15T02:33:16.347Z,70.00
2019-03-15T02:43:19.173Z,69.90
2019-03-15T02:53:21.627Z,69.10
2019-03-15T03:03:23.613Z,68.90
2019-03-15T03:13:26.247Z,68.70
2019-03-15T03:23:28.605Z,68.50
2019-03-15T03:33:31.230Z,68.60
2019-03-15T03:43:33.316Z,68.90
2019-03-15T03:53:35.414Z,68.90
2019-03-15T04:03:37.539Z,69.70
2019-03-15T04:13:39.936Z,69.40
2019-03-15T04:23:41.936Z,69.70
2019-03-15T04:33:44.577Z,69.60
2019-03-15T04:43:46.816Z,69.60
2019-03-15T04:53:49.144Z,69.70
2019-03-15T05:03:51.632Z,69.30
2019-03-15T05:13:53.894Z,71.30
2019-03-15T05:23:56.063Z,71.50
2019-03-15T05:33:58.195Z,72.40
2019-03-15T05:44:01.598Z,72.70
2019-03-15T05:54:03.592Z,74.00
2019-03-15T06:04:05.768Z,74.30
2019-03-15T06:14:08.568Z,76.10
2019-03-15T06:24:10.621Z,77.20
2019-03-15T06:34:24.897Z,77.40
2019-03-15T06:44:27.534Z,77.60
2019-03-15T06:54:29.551Z,78.30
2019-03-15T07:04:31.676Z,79.40
2019-03-15T07:14:35.347Z,80.70
2019-03-15T07:24:37.292Z,81.60
2019-03-15T07:34:39.433Z,82.40
2019-03-15T07:44:41.733Z,83.10
2019-03-15T07:54:45.128Z,82.60
2019-03-15T08:04:48.461Z,83.30
2019-03-15T08:14:50.480Z,84.20
2019-03-15T08:24:52.976Z,84.50
2019-03-15T08:34:57.445Z,85.00
2019-03-15T08:44:59.613Z,86.30
2019-03-15T08:55:05.541Z,86.80
2019-03-15T09:05:06.900Z,87.70
2019-03-15T09:15:08.631Z,86.30
2019-03-15T09:25:19.276Z,89.90
2019-03-15T09:35:15.129Z,88.70
2019-03-15T09:45:17.733Z,88.50
2019-03-15T09:55:32.250Z,89.10
2019-03-15T10:05:24.186Z,89.00
2019-03-15T10:15:26.813Z,89.10
2019-03-15T10:25:29.550Z,89.50
2019-03-15T10:35:32.111Z,90.30
2019-03-15T10:45:34.721Z,90.30
2019-03-15T10:55:37.020Z,90.70
2019-03-15T11:05:41.047Z,90.90
2019-03-15T11:15:43.031Z,90.90
2019-03-15T11:25:45.627Z,90.70
2019-03-15T11:35:47.563Z,90.50
2019-03-15T11:45:49.470Z,89.00
2019-03-15T11:56:10.911Z,86.70
2019-03-15T12:06:13.257Z,87.00
2019-03-15T12:16:15.571Z,87.50
2019-03-15T12:26:20.525Z,84.60
2019-03-15T12:36:22.475Z,82.40
2019-03-15T12:46:24.698Z,80.10
2019-03-15T12:56:53.569Z,70.90
2019-03-15T13:06:53.474Z,73.10
2019-03-15T13:16:56.530Z,66.90
2019-03-15T13:27:07.411Z,67.20
2019-03-15T13:37:02.435Z,70.00
2019-03-15T13:47:04.566Z,73.80
2019-03-15T13:57:06.494Z,76.20
2019-03-15T14:07:08.483Z,77.00
2019-03-15T14:17:10.703Z,77.40
2019-03-15T14:27:12.995Z,77.30
2019-03-15T14:37:15.109Z,76.80
2019-03-15T14:47:18.666Z,77.70
2019-03-15T14:57:20.740Z,77.50
2019-03-15T15:07:22.754Z,78.90
2019-03-15T15:17:24.834Z,78.00
2019-03-15T15:27:27.995Z,78.50
2019-03-15T15:37:29.936Z,78.90
2019-03-15T15:47:33.936Z,79.30
2019-03-15T15:57:36.230Z,80.70
2019-03-15T16:07:38.728Z,82.80
2019-03-15T16:17:41.394Z,84.40
2019-03-15T16:27:45.648Z,86.00
2019-03-15T16:37:47.652Z,86.70
2019-03-15T16:47:49.779Z,87.50
2019-03-15T16:57:51.716Z,88.10
2019-03-15T17:07:54.039Z,88.50
2019-03-15T17:17:56.550Z,89.10
2019-03-15T17:27:58.794Z,90.10
2019-03-15T17:38:00.752Z,90.50
2019-03-15T17:48:02.775Z,90.80
2019-03-15T17:58:05.179Z,90.80
2019-03-15T18:08:07.071Z,91.30
2019-03-15T18:18:09.412Z,91.00
2019-03-15T18:28:11.375Z,90.80
2019-03-15T18:38:13.861Z,90.60
2019-03-15T18:48:16.239Z,90.70
2019-03-15T18:58:19.302Z,90.70
2019-03-15T19:08:22.658Z,87.60
2019-03-15T19:18:25.073Z,87.00
2019-03-15T19:28:27.645Z,86.00
2019-03-15T19:38:29.647Z,84.40
2019-03-15T19:48:32.079Z,83.50
2019-03-15T19:58:34.791Z,82.20
2019-03-15T20:08:36.868Z,80.50
2019-03-15T20:18:40.214Z,79.50
2019-03-15T20:28:42.205Z,78.40
2019-03-15T20:38:44.798Z,77.20
2019-03-15T20:48:47.064Z,76.40
2019-03-15T20:58:50.165Z,76.00
2019-03-15T21:08:52.013Z,76.30
2019-03-15T21:18:54.274Z,75.10
2019-03-15T21:28:57.777Z,75.90
2019-03-15T21:38:59.681Z,75.30
2019-03-15T21:49:01.643Z,75.80
2019-03-15T21:59:03.947Z,75.70
2019-03-15T22:09:06.699Z,76.30
2019-03-15T22:19:08.700Z,77.00
2019-03-15T22:29:10.713Z,77.50
2019-03-15T22:39:12.979Z,77.80
2019-03-15T22:49:15.567Z,78.10
2019-03-15T22:59:19.298Z,79.20
2019-03-15T23:09:21.282Z,79.40
2019-03-15T23:19:23.312Z,79.70
2019-03-15T23:29:27.043Z,79.30
2019-03-15T23:39:29.024Z,80.00
2019-03-15T23:49:31.036Z,81.50
2019-03-15T23:59:33.006Z,82.70
